createdAt,value
2022-08-21T00:01:59.386Z,22.78
2022-08-21T00:03:39.155Z,22.77
2022-08-21T00:05:18.926Z,22.76
2022-08-21T00:06:58.685Z,22.76
2022-08-21T00:08:38.477Z,22.76
2022-08-21T00:11:58.003Z,22.75
2022-08-21T00:15:17.540Z,22.73
2022-08-21T00:16:57.304Z,22.73
2022-08-21T00:18:37.059Z,22.72
2022-08-21T00:20:16.833Z,22.73
2022-08-21T00:21:56.596Z,22.73
2022-08-21T00:23:36.366Z,22.72
2022-08-21T00:25:16.136Z,22.69
2022-08-21T00:26:55.911Z,22.7
2022-08-21T00:28:35.678Z,22.71
2022-08-21T00:30:15.437Z,22.71
2022-08-21T00:31:55.222Z,22.69
2022-08-21T00:33:34.967Z,22.69
2022-08-21T00:35:14.741Z,22.67
2022-08-21T00:36:54.501Z,22.68
2022-08-21T00:38:34.268Z,22.69
2022-08-21T00:40:14.064Z,22.66
2022-08-21T00:41:53.819Z,22.66
2022-08-21T00:43:33.587Z,22.67
2022-08-21T00:45:13.347Z,22.64
2022-08-21T00:48:32.880Z,22.64
2022-08-21T00:50:12.646Z,22.64
2022-08-21T00:51:52.417Z,22.62
2022-08-21T00:53:32.195Z,22.63
2022-08-21T00:55:11.950Z,22.63
2022-08-21T00:56:51.760Z,22.62
2022-08-21T00:58:31.482Z,22.62
2022-08-21T01:00:11.253Z,22.61
2022-08-21T01:01:51.019Z,22.61
2022-08-21T01:03:30.796Z,22.58
2022-08-21T01:05:10.547Z,22.59
2022-08-21T01:06:50.381Z,22.59
2022-08-21T01:08:30.099Z,22.56
2022-08-21T01:10:09.865Z,22.57
2022-08-21T01:11:49.625Z,22.56
2022-08-21T01:13:29.389Z,22.56
2022-08-21T01:15:09.169Z,22.55
2022-08-21T01:16:48.940Z,22.55
2022-08-21T01:18:28.707Z,22.55
2022-08-21T01:20:08.460Z,22.52
2022-08-21T01:21:48.228Z,22.52
2022-08-21T01:23:27.995Z,22.52
2022-08-21T01:25:07.766Z,22.52
2022-08-21T01:26:47.539Z,22.52
2022-08-21T01:28:27.311Z,22.5
2022-08-21T01:30:07.077Z,22.49
2022-08-21T01:31:46.844Z,22.5
2022-08-21T01:33:26.607Z,22.48
2022-08-21T01:35:06.377Z,22.49
2022-08-21T01:36:46.148Z,22.47
2022-08-21T01:38:25.905Z,22.46
2022-08-21T01:40:05.665Z,22.47
2022-08-21T01:41:45.452Z,22.46
2022-08-21T01:43:25.233Z,22.44
2022-08-21T01:45:04.969Z,22.44
2022-08-21T01:46:44.741Z,22.44
2022-08-21T01:50:04.273Z,22.42
2022-08-21T01:51:44.042Z,22.43
2022-08-21T01:55:03.589Z,22.4
2022-08-21T01:56:43.347Z,22.4
2022-08-21T02:00:02.901Z,22.39
2022-08-21T02:01:42.654Z,22.37
2022-08-21T02:03:22.414Z,22.38
2022-08-21T02:05:02.193Z,22.37
2022-08-21T02:06:41.965Z,22.36
2022-08-21T02:08:21.740Z,22.36
2022-08-21T02:10:01.485Z,22.33
2022-08-21T02:11:41.253Z,22.34
2022-08-21T02:13:21.013Z,22.32
2022-08-21T02:15:00.806Z,22.32
2022-08-21T02:16:40.555Z,22.32
2022-08-21T02:18:20.317Z,22.31
2022-08-21T02:21:39.869Z,22.28
2022-08-21T02:23:19.631Z,22.27
2022-08-21T02:24:59.402Z,22.28
2022-08-21T02:26:39.168Z,22.25
2022-08-21T02:28:18.934Z,22.26
2022-08-21T02:31:38.470Z,22.24
2022-08-21T02:33:18.228Z,22.23
2022-08-21T02:34:58.006Z,22.23
2022-08-21T02:36:37.768Z,22.2
2022-08-21T02:38:17.526Z,22.22
2022-08-21T02:39:57.342Z,22.2
2022-08-21T02:41:37.071Z,22.2
2022-08-21T02:43:16.847Z,22.18
2022-08-21T02:44:56.600Z,22.16
2022-08-21T02:46:36.364Z,22.17
2022-08-21T02:48:16.135Z,22.14
2022-08-21T02:49:55.909Z,22.13
2022-08-21T02:51:35.679Z,22.14
2022-08-21T02:53:15.456Z,22.11
2022-08-21T02:54:55.222Z,22.12
2022-08-21T02:56:34.984Z,22.11
2022-08-21T02:58:14.748Z,22.1
2022-08-21T02:59:54.551Z,22.08
2022-08-21T03:03:14.051Z,22.06
2022-08-21T03:04:53.823Z,22.05
2022-08-21T03:06:33.592Z,22.05
2022-08-21T03:08:13.393Z,22.02
2022-08-21T03:09:53.136Z,22.01
2022-08-21T03:11:32.886Z,22.02
2022-08-21T03:13:12.659Z,22.01
2022-08-21T03:14:52.431Z,22
2022-08-21T03:16:32.196Z,21.98
2022-08-21T03:18:11.966Z,21.95
2022-08-21T03:19:51.735Z,21.97
2022-08-21T03:21:31.490Z,21.95
2022-08-21T03:23:11.265Z,21.95
2022-08-21T03:24:51.023Z,21.93
2022-08-21T03:26:30.799Z,21.91
2022-08-21T03:28:10.567Z,21.92
2022-08-21T03:29:50.335Z,21.88
2022-08-21T03:31:30.100Z,21.89
2022-08-21T03:33:09.860Z,21.88
2022-08-21T03:34:49.644Z,21.87
2022-08-21T03:36:29.409Z,21.85
2022-08-21T03:38:09.166Z,21.85
2022-08-21T03:39:48.941Z,21.82
2022-08-21T03:41:28.701Z,21.82
2022-08-21T03:43:08.484Z,21.79
2022-08-21T03:44:48.293Z,21.8
2022-08-21T03:46:28.018Z,21.8
2022-08-21T03:48:07.783Z,21.79
2022-08-21T03:49:47.541Z,21.81
2022-08-21T03:51:27.318Z,21.83
2022-08-21T03:53:07.079Z,21.87
2022-08-21T03:54:46.849Z,21.87
2022-08-21T03:56:26.670Z,21.91
2022-08-21T03:58:06.376Z,21.91
2022-08-21T03:59:46.130Z,21.89
2022-08-21T04:01:25.909Z,21.92
2022-08-21T04:09:44.751Z,21.97
2022-08-21T04:11:24.484Z,21.97
2022-08-21T04:13:04.268Z,21.96
2022-08-21T04:14:44.025Z,21.98
2022-08-21T04:16:23.786Z,22
2022-08-21T04:18:03.539Z,21.99
2022-08-21T04:19:43.318Z,21.98
2022-08-21T04:21:23.078Z,21.99
2022-08-21T04:23:02.848Z,21.98
2022-08-21T04:24:42.603Z,22.01
2022-08-21T04:26:22.374Z,22.01
2022-08-21T04:28:02.143Z,22
2022-08-21T04:29:41.897Z,21.99
2022-08-21T04:31:21.679Z,22.02
2022-08-21T04:33:01.427Z,22.01
2022-08-21T04:34:41.205Z,22.03
2022-08-21T04:36:20.996Z,22.01
2022-08-21T04:38:00.726Z,22.01
2022-08-21T04:41:20.298Z,22
2022-08-21T04:43:00.038Z,22.02
2022-08-21T04:44:39.814Z,22.02
2022-08-21T04:46:19.570Z,22.02
2022-08-21T04:47:59.358Z,22
2022-08-21T04:49:39.170Z,22.01
2022-08-21T04:51:18.898Z,22.02
2022-08-21T04:52:58.677Z,22
2022-08-21T04:54:38.426Z,22.04
2022-08-21T04:56:18.210Z,22.02
2022-08-21T04:57:57.981Z,22.01
2022-08-21T04:59:37.744Z,22.03
2022-08-21T05:01:17.506Z,22.04
2022-08-21T05:02:57.278Z,22.04
2022-08-21T05:04:37.062Z,22.02
2022-08-21T05:06:16.815Z,22
2022-08-21T05:07:56.614Z,22.02
2022-08-21T05:09:36.371Z,22.02
2022-08-21T05:11:16.124Z,22.01
2022-08-21T05:12:55.908Z,22.02
2022-08-21T05:14:35.683Z,22.02
2022-08-21T05:16:15.436Z,22.03
2022-08-21T05:17:55.219Z,22.01
2022-08-21T05:19:34.978Z,22
2022-08-21T05:21:14.754Z,22.01
2022-08-21T05:22:54.525Z,22.02
2022-08-21T05:24:34.293Z,22.02
2022-08-21T05:26:14.082Z,22.01
2022-08-21T05:27:53.829Z,22.01
2022-08-21T05:29:33.602Z,22.02
2022-08-21T05:31:13.378Z,22.02
2022-08-21T05:32:53.155Z,22
2022-08-21T05:34:32.918Z,22.02
2022-08-21T05:36:12.690Z,22.03
2022-08-21T05:37:52.458Z,22.02
2022-08-21T05:39:32.223Z,22
2022-08-21T05:41:12.002Z,22.02
2022-08-21T05:42:51.770Z,22.02
2022-08-21T05:44:31.550Z,22.02
2022-08-21T05:46:11.313Z,22.03
2022-08-21T05:47:51.078Z,22.05
2022-08-21T05:49:30.858Z,22.08
2022-08-21T05:51:10.627Z,22.13
2022-08-21T05:52:50.392Z,22.17
2022-08-21T05:54:30.182Z,22.23
2022-08-21T05:56:09.953Z,22.28
2022-08-21T05:57:49.710Z,22.33
2022-08-21T05:59:29.482Z,22.37
2022-08-21T06:01:09.244Z,22.44
2022-08-21T06:02:49.014Z,22.49
2022-08-21T06:04:28.790Z,22.52
2022-08-21T06:06:08.560Z,22.56
2022-08-21T06:07:48.311Z,22.56
2022-08-21T06:11:07.861Z,22.63
2022-08-21T06:12:47.626Z,22.69
2022-08-21T06:14:27.398Z,22.7
2022-08-21T06:16:07.169Z,22.74
2022-08-21T06:17:46.933Z,22.78
2022-08-21T06:19:26.720Z,22.84
2022-08-21T06:21:06.489Z,22.88
2022-08-21T06:22:46.256Z,22.92
2022-08-21T06:24:26.020Z,22.96
2022-08-21T06:26:05.792Z,23
2022-08-21T06:27:45.570Z,23.06
2022-08-21T06:29:25.347Z,23.07
2022-08-21T06:31:05.114Z,23.12
2022-08-21T06:32:44.871Z,23.18
2022-08-21T06:34:24.643Z,23.2
2022-08-21T06:36:04.427Z,23.22
2022-08-21T06:37:44.204Z,23.26
2022-08-21T06:39:23.968Z,23.31
2022-08-21T06:41:03.733Z,23.32
2022-08-21T06:42:43.504Z,23.35
2022-08-21T06:44:23.278Z,23.4
2022-08-21T06:46:03.052Z,23.44
2022-08-21T06:47:42.810Z,23.46
2022-08-21T06:49:22.579Z,23.48
2022-08-21T06:51:02.361Z,23.5
2022-08-21T06:52:42.133Z,23.54
2022-08-21T06:54:21.899Z,23.57
2022-08-21T06:56:01.660Z,23.61
2022-08-21T06:57:41.428Z,23.63
2022-08-21T06:59:21.194Z,23.66
2022-08-21T07:01:00.969Z,23.66
2022-08-21T07:02:40.786Z,23.71
2022-08-21T07:04:20.512Z,23.72
2022-08-21T07:06:00.317Z,23.74
2022-08-21T07:07:40.066Z,23.76
2022-08-21T07:09:19.827Z,23.78
2022-08-21T07:10:59.624Z,23.8
2022-08-21T07:12:39.397Z,23.83
2022-08-21T07:14:19.150Z,23.87
2022-08-21T07:15:58.926Z,23.87
2022-08-21T07:17:38.676Z,23.9
2022-08-21T07:19:18.466Z,23.92
2022-08-21T07:20:58.227Z,23.95
2022-08-21T07:22:37.998Z,23.97
2022-08-21T07:24:17.767Z,23.98
2022-08-21T07:25:57.535Z,24
2022-08-21T07:27:37.312Z,24.04
2022-08-21T07:29:17.085Z,24.05
2022-08-21T07:30:56.849Z,24.06
2022-08-21T07:32:36.628Z,24.07
2022-08-21T07:34:16.384Z,24.1
2022-08-21T07:35:56.146Z,24.14
2022-08-21T07:37:35.938Z,24.17
2022-08-21T07:39:15.699Z,24.18
2022-08-21T07:40:55.460Z,24.2
2022-08-21T07:42:35.321Z,24.23
2022-08-21T07:44:15.012Z,24.25
2022-08-21T07:45:54.781Z,24.27
2022-08-21T07:47:34.553Z,24.28
2022-08-21T07:49:14.327Z,24.32
2022-08-21T07:50:54.106Z,24.33
2022-08-21T07:52:33.868Z,24.36
2022-08-21T07:54:13.637Z,24.39
2022-08-21T07:55:53.397Z,24.39
2022-08-21T07:57:33.170Z,24.45
2022-08-21T07:59:12.936Z,24.47
2022-08-21T08:00:52.723Z,24.49
2022-08-21T08:02:32.474Z,24.5
2022-08-21T08:05:52.038Z,24.55
2022-08-21T08:07:31.810Z,24.58
2022-08-21T08:09:11.572Z,24.59
2022-08-21T08:10:51.346Z,24.63
2022-08-21T08:12:31.100Z,24.64
2022-08-21T08:14:10.888Z,24.66
2022-08-21T08:15:50.655Z,24.72
2022-08-21T08:17:30.437Z,24.72
2022-08-21T08:20:49.959Z,24.77
2022-08-21T08:22:29.735Z,24.81
2022-08-21T08:24:09.500Z,24.83
2022-08-21T08:25:49.295Z,24.85
2022-08-21T08:27:29.038Z,24.88
2022-08-21T08:29:08.808Z,24.9
2022-08-21T08:30:48.572Z,24.93
2022-08-21T08:32:28.359Z,24.95
2022-08-21T08:34:08.125Z,24.99
2022-08-21T08:35:47.910Z,25.01
2022-08-21T08:37:27.673Z,25.03
2022-08-21T08:39:07.429Z,25.05
2022-08-21T08:40:47.200Z,25.08
2022-08-21T08:42:26.987Z,25.13
2022-08-21T08:44:06.757Z,25.14
2022-08-21T08:45:46.514Z,25.16
2022-08-21T08:47:26.297Z,25.18
2022-08-21T08:50:45.835Z,25.21
2022-08-21T08:52:25.596Z,25.25
2022-08-21T08:54:05.370Z,25.28
2022-08-21T08:55:45.156Z,25.31
2022-08-21T08:57:24.910Z,25.31
2022-08-21T08:59:04.719Z,25.35
2022-08-21T09:00:44.461Z,25.36
2022-08-21T09:02:24.214Z,25.4
2022-08-21T09:04:03.992Z,25.42
2022-08-21T09:05:43.779Z,25.45
2022-08-21T09:07:23.535Z,25.46
2022-08-21T09:09:03.304Z,25.48
2022-08-21T09:10:43.077Z,25.49
2022-08-21T09:12:22.859Z,25.54
2022-08-21T09:14:02.615Z,25.56
2022-08-21T09:15:42.380Z,25.52
2022-08-21T09:17:22.155Z,25.43
2022-08-21T09:19:01.927Z,25.36
2022-08-21T09:20:41.699Z,25.26
2022-08-21T09:22:21.465Z,25.18
2022-08-21T09:24:01.227Z,25.1
2022-08-21T09:25:41.007Z,25.05
2022-08-21T09:27:20.769Z,25.05
2022-08-21T09:30:40.320Z,25.01
2022-08-21T09:32:20.078Z,25.06
2022-08-21T09:33:59.863Z,25.08
2022-08-21T09:35:39.631Z,25.11
2022-08-21T09:37:19.404Z,25.11
2022-08-21T09:38:59.159Z,25.13
2022-08-21T09:40:38.938Z,25.17
2022-08-21T09:42:18.714Z,25.17
2022-08-21T09:43:58.474Z,25.18
2022-08-21T09:45:38.249Z,25.18
2022-08-21T09:47:18.009Z,25.21
2022-08-21T09:50:37.555Z,25.23
2022-08-21T09:52:17.326Z,25.26
2022-08-21T09:53:57.108Z,25.27
2022-08-21T09:55:36.883Z,25.27
2022-08-21T09:57:16.646Z,25.27
2022-08-21T09:58:56.404Z,25.31
2022-08-21T10:00:36.203Z,25.32
2022-08-21T10:02:15.951Z,25.32
2022-08-21T10:03:55.721Z,25.34
2022-08-21T10:05:35.507Z,25.35
2022-08-21T10:07:15.264Z,25.36
2022-08-21T10:10:34.804Z,25.37
2022-08-21T10:12:14.579Z,25.39
2022-08-21T10:13:54.364Z,25.4
2022-08-21T10:15:34.126Z,25.43
2022-08-21T10:17:13.902Z,25.45
2022-08-21T10:18:53.659Z,25.44
2022-08-21T10:20:33.424Z,25.46
2022-08-21T10:22:13.199Z,25.47
2022-08-21T10:23:52.969Z,25.47
2022-08-21T10:25:32.741Z,25.47
2022-08-21T10:27:12.524Z,25.51
2022-08-21T10:28:52.281Z,25.52
2022-08-21T10:30:32.051Z,25.51
2022-08-21T10:32:11.817Z,25.55
2022-08-21T10:33:51.598Z,25.55
2022-08-21T10:35:31.365Z,25.58
2022-08-21T10:37:11.129Z,25.6
2022-08-21T10:38:50.895Z,25.6
2022-08-21T10:40:30.669Z,25.63
2022-08-21T10:42:10.452Z,25.62
2022-08-21T10:43:50.269Z,25.67
2022-08-21T10:45:29.984Z,25.66
2022-08-21T10:47:09.748Z,25.67
2022-08-21T10:50:29.288Z,25.71
2022-08-21T10:52:09.060Z,25.72
2022-08-21T10:53:48.826Z,25.72
2022-08-21T10:55:28.593Z,25.74
2022-08-21T10:57:08.373Z,25.76
2022-08-21T10:58:48.137Z,25.79
2022-08-21T11:00:27.912Z,25.78
2022-08-21T11:02:07.696Z,25.78
2022-08-21T11:03:47.451Z,25.81
2022-08-21T11:05:27.226Z,25.83
2022-08-21T11:07:06.994Z,25.86
2022-08-21T11:08:46.757Z,25.85
2022-08-21T11:10:26.533Z,25.88
2022-08-21T11:12:06.309Z,25.87
2022-08-21T11:13:46.073Z,25.9
2022-08-21T11:15:25.855Z,25.89
2022-08-21T11:17:05.621Z,25.9
2022-08-21T11:18:45.387Z,25.93
2022-08-21T11:20:25.168Z,25.94
2022-08-21T11:22:04.925Z,25.94
2022-08-21T11:23:44.702Z,25.97
2022-08-21T11:25:24.469Z,25.96
2022-08-21T11:27:04.245Z,25.98
2022-08-21T11:28:43.999Z,25.97
2022-08-21T11:30:23.782Z,26
2022-08-21T11:33:43.308Z,26.04
2022-08-21T11:35:23.118Z,26.03
2022-08-21T11:37:02.861Z,26.07
2022-08-21T11:38:42.620Z,26.07
2022-08-21T11:40:22.396Z,26.06
2022-08-21T11:42:02.163Z,26.1
2022-08-21T11:43:41.938Z,26.11
2022-08-21T11:45:21.719Z,26.15
2022-08-21T11:47:01.477Z,26.16
2022-08-21T11:48:41.290Z,26.18
2022-08-21T11:50:21.015Z,26.18
2022-08-21T11:52:00.802Z,26.2
2022-08-21T11:53:40.562Z,26.21
2022-08-21T11:55:20.339Z,26.23
2022-08-21T11:57:00.097Z,26.26
2022-08-21T11:58:39.876Z,26.27
2022-08-21T12:00:19.635Z,26.3
2022-08-21T12:01:59.421Z,26.32
2022-08-21T12:03:39.186Z,26.33
2022-08-21T12:05:18.960Z,26.33
2022-08-21T12:06:58.715Z,26.36
2022-08-21T12:08:38.485Z,26.37
2022-08-21T12:10:18.269Z,26.4
2022-08-21T12:11:58.020Z,26.42
2022-08-21T12:13:37.799Z,26.45
2022-08-21T12:15:17.567Z,26.48
2022-08-21T12:16:57.354Z,26.48
2022-08-21T12:18:37.114Z,26.52
2022-08-21T12:20:16.879Z,26.54
2022-08-21T12:21:56.667Z,26.56
2022-08-21T12:23:36.425Z,26.57
2022-08-21T12:25:16.202Z,26.61
2022-08-21T12:26:55.959Z,26.64
2022-08-21T12:28:35.763Z,26.66
2022-08-21T12:30:15.501Z,26.68
2022-08-21T12:31:55.268Z,26.72
2022-08-21T12:33:35.044Z,26.74
2022-08-21T12:35:14.821Z,26.77
2022-08-21T12:36:54.580Z,26.77
2022-08-21T12:40:14.136Z,26.81
2022-08-21T12:41:53.891Z,26.84
2022-08-21T12:43:33.674Z,26.89
2022-08-21T12:45:13.444Z,26.9
2022-08-21T12:46:53.216Z,26.91
2022-08-21T12:48:32.980Z,26.92
2022-08-21T12:50:12.764Z,26.95
2022-08-21T12:51:52.530Z,26.99
2022-08-21T12:53:32.280Z,27.01
2022-08-21T12:55:12.049Z,27.05
2022-08-21T12:56:51.835Z,27.07
2022-08-21T12:58:31.610Z,27.11
2022-08-21T13:00:11.369Z,27.15
2022-08-21T13:01:51.142Z,27.16
2022-08-21T13:03:30.917Z,27.22
2022-08-21T13:05:10.674Z,27.25
2022-08-21T13:06:50.447Z,27.29
2022-08-21T13:08:30.230Z,27.28
2022-08-21T13:10:09.996Z,27.34
2022-08-21T13:11:49.764Z,27.36
2022-08-21T13:13:29.534Z,27.39
2022-08-21T13:15:09.296Z,27.44
2022-08-21T13:16:49.075Z,27.47
2022-08-21T13:18:28.842Z,27.51
2022-08-21T13:20:08.622Z,27.53
2022-08-21T13:21:48.394Z,27.56
2022-08-21T13:23:28.153Z,27.59
2022-08-21T13:25:07.925Z,27.6
2022-08-21T13:26:47.683Z,27.63
2022-08-21T13:30:07.241Z,27.71
2022-08-21T13:31:46.994Z,27.74
2022-08-21T13:33:26.766Z,27.78
2022-08-21T13:35:06.543Z,27.81
2022-08-21T13:36:46.323Z,27.83
2022-08-21T13:38:26.091Z,27.86
2022-08-21T13:40:05.848Z,27.9
2022-08-21T13:41:45.632Z,27.9
2022-08-21T13:43:25.413Z,27.92
2022-08-21T13:45:05.167Z,27.95
2022-08-21T13:46:44.936Z,27.95
2022-08-21T13:48:24.704Z,28
2022-08-21T13:50:04.478Z,28.02
2022-08-21T13:51:44.243Z,28.03
2022-08-21T13:53:24.021Z,28.05
2022-08-21T13:55:03.793Z,28.04
2022-08-21T13:56:43.567Z,28.1
2022-08-21T13:58:23.334Z,28.11
2022-08-21T14:00:03.103Z,28.12
2022-08-21T14:01:42.874Z,28.16
2022-08-21T14:03:22.651Z,28.18
2022-08-21T14:05:02.424Z,28.19
2022-08-21T14:06:42.184Z,28.23
2022-08-21T14:08:21.965Z,28.24
2022-08-21T14:10:01.721Z,28.25
2022-08-21T14:11:41.495Z,28.29
2022-08-21T14:13:21.260Z,28.29
2022-08-21T14:15:01.044Z,28.32
2022-08-21T14:20:00.346Z,28.41
2022-08-21T14:21:40.128Z,28.41
2022-08-21T14:23:19.895Z,28.44
2022-08-21T14:24:59.661Z,28.43
2022-08-21T14:26:39.436Z,28.45
2022-08-21T14:28:19.206Z,28.48
2022-08-21T14:29:58.981Z,28.5
2022-08-21T14:31:38.740Z,28.51
2022-08-21T14:33:18.522Z,28.49
2022-08-21T14:34:58.283Z,28.48
2022-08-21T14:36:38.040Z,28.51
2022-08-21T14:38:17.823Z,28.52
2022-08-21T14:39:57.586Z,28.51
2022-08-21T14:41:37.373Z,28.51
2022-08-21T14:43:17.128Z,28.5
2022-08-21T14:44:56.914Z,28.5
2022-08-21T14:46:36.676Z,28.52
2022-08-21T14:48:16.439Z,28.53
2022-08-21T14:49:56.226Z,28.56
2022-08-21T14:51:35.997Z,28.55
2022-08-21T14:53:15.786Z,28.55
2022-08-21T14:54:55.527Z,28.54
2022-08-21T14:56:35.304Z,28.58
2022-08-21T14:58:15.061Z,28.57
2022-08-21T14:59:54.831Z,28.56
2022-08-21T15:01:34.601Z,28.58
2022-08-21T15:03:14.374Z,28.59
2022-08-21T15:04:54.141Z,28.58
2022-08-21T15:06:33.920Z,28.58
2022-08-21T15:08:13.692Z,28.55
2022-08-21T15:09:53.464Z,28.56
2022-08-21T15:11:33.235Z,28.56
2022-08-21T15:13:12.993Z,28.56
2022-08-21T15:14:52.798Z,28.55
2022-08-21T15:16:32.547Z,28.59
2022-08-21T15:18:12.314Z,28.58
2022-08-21T15:21:31.862Z,28.59
2022-08-21T15:23:11.625Z,28.56
2022-08-21T15:24:51.398Z,28.57
2022-08-21T15:26:31.160Z,28.55
2022-08-21T15:28:10.944Z,28.57
2022-08-21T15:29:50.716Z,28.57
2022-08-21T15:31:30.482Z,28.56
2022-08-21T15:33:10.238Z,28.55
2022-08-21T15:34:50.013Z,28.56
2022-08-21T15:36:29.784Z,28.56
2022-08-21T15:38:09.562Z,28.55
2022-08-21T15:39:49.333Z,28.54
2022-08-21T15:41:29.099Z,28.54
2022-08-21T15:43:08.882Z,28.55
2022-08-21T15:44:48.637Z,28.51
2022-08-21T15:46:28.418Z,28.51
2022-08-21T15:48:08.187Z,28.5
2022-08-21T15:49:47.959Z,28.47
2022-08-21T15:51:27.730Z,28.49
2022-08-21T15:53:07.495Z,28.48
2022-08-21T15:54:47.259Z,28.45
2022-08-21T15:56:27.044Z,28.45
2022-08-21T15:58:06.796Z,28.44
2022-08-21T15:59:46.588Z,28.44
2022-08-21T16:01:26.350Z,28.43
2022-08-21T16:03:06.106Z,28.41
2022-08-21T16:04:45.891Z,28.4
2022-08-21T16:06:25.667Z,28.39
2022-08-21T16:09:45.208Z,28.36
2022-08-21T16:11:24.975Z,28.38
2022-08-21T16:13:04.733Z,28.36
2022-08-21T16:14:44.505Z,28.33
2022-08-21T16:16:24.281Z,28.32
2022-08-21T16:18:04.045Z,28.32
2022-08-21T16:19:43.820Z,28.31
2022-08-21T16:21:23.590Z,28.32
2022-08-21T16:23:03.366Z,28.29
2022-08-21T16:24:43.139Z,28.29
2022-08-21T16:26:22.907Z,28.29
2022-08-21T16:29:42.445Z,28.28
2022-08-21T16:31:22.212Z,28.28
2022-08-21T16:33:01.983Z,28.27
2022-08-21T16:34:41.750Z,28.23
2022-08-21T16:36:21.529Z,28.2
2022-08-21T16:38:01.284Z,28.22
2022-08-21T16:39:41.082Z,28.2
2022-08-21T16:41:20.831Z,28.17
2022-08-21T16:43:00.603Z,28.15
2022-08-21T16:44:40.368Z,28.15
2022-08-21T16:46:20.134Z,28.13
2022-08-21T16:47:59.907Z,28.11
2022-08-21T16:49:39.695Z,28.09
2022-08-21T16:51:19.467Z,28.08
2022-08-21T16:52:59.223Z,28.07
2022-08-21T16:54:39.005Z,28.04
2022-08-21T16:56:18.775Z,28.06
2022-08-21T16:57:58.532Z,28.03
2022-08-21T16:59:38.308Z,28.03
2022-08-21T17:01:18.075Z,28.02
2022-08-21T17:02:57.850Z,28.03
2022-08-21T17:04:37.613Z,28.03
2022-08-21T17:06:17.382Z,28.04
2022-08-21T17:09:36.922Z,28.02
2022-08-21T17:11:16.701Z,28.01
2022-08-21T17:12:56.480Z,28
2022-08-21T17:14:36.238Z,27.97
2022-08-21T17:16:16.026Z,27.96
2022-08-21T17:17:55.783Z,27.94
2022-08-21T17:19:35.565Z,27.92
2022-08-21T17:21:15.323Z,27.9
2022-08-21T17:22:55.102Z,27.86
2022-08-21T17:24:34.874Z,27.84
2022-08-21T17:26:14.647Z,27.8
2022-08-21T17:27:54.417Z,27.8
2022-08-21T17:29:34.174Z,27.78
2022-08-21T17:31:13.949Z,27.78
2022-08-21T17:32:53.734Z,27.78
2022-08-21T17:34:33.488Z,27.77
2022-08-21T17:36:13.257Z,27.74
2022-08-21T17:37:53.052Z,27.74
2022-08-21T17:39:32.809Z,27.74
2022-08-21T17:41:12.577Z,27.71
2022-08-21T17:42:52.338Z,27.7
2022-08-21T17:44:32.111Z,27.66
2022-08-21T17:46:11.884Z,27.67
2022-08-21T17:47:51.662Z,27.61
2022-08-21T17:49:31.419Z,27.61
2022-08-21T17:51:11.189Z,27.59
2022-08-21T17:52:50.971Z,27.55
2022-08-21T17:54:30.770Z,27.53
2022-08-21T17:56:10.512Z,27.51
2022-08-21T17:59:30.051Z,27.48
2022-08-21T18:01:09.801Z,27.42
2022-08-21T18:02:49.574Z,27.37
2022-08-21T18:04:29.349Z,27.3
2022-08-21T18:06:09.130Z,27.28
2022-08-21T18:07:48.877Z,27.22
2022-08-21T18:09:28.650Z,27.18
2022-08-21T18:11:08.422Z,27.16
2022-08-21T18:12:48.184Z,27.12
2022-08-21T18:14:27.958Z,27.1
2022-08-21T18:16:07.716Z,27.03
2022-08-21T18:17:47.491Z,27.03
2022-08-21T18:19:27.261Z,26.98
2022-08-21T18:21:07.035Z,26.94
2022-08-21T18:22:46.788Z,26.91
2022-08-21T18:24:26.567Z,26.85
2022-08-21T18:26:06.341Z,26.81
2022-08-21T18:27:46.106Z,26.79
2022-08-21T18:29:25.888Z,26.75
2022-08-21T18:31:05.628Z,26.73
2022-08-21T18:32:45.402Z,26.68
2022-08-21T18:34:25.176Z,26.66
2022-08-21T18:36:04.936Z,26.63
2022-08-21T18:37:44.703Z,26.59
2022-08-21T18:39:24.468Z,26.59
2022-08-21T18:41:04.236Z,26.53
2022-08-21T18:42:44.010Z,26.5
2022-08-21T18:44:23.783Z,26.45
2022-08-21T18:46:03.538Z,26.4
2022-08-21T18:47:43.312Z,26.34
2022-08-21T18:49:23.068Z,26.29
2022-08-21T18:51:02.849Z,26.24
2022-08-21T18:52:42.619Z,26.16
2022-08-21T18:54:22.377Z,26.13
2022-08-21T18:56:02.145Z,26.06
2022-08-21T18:57:41.946Z,26.01
2022-08-21T18:59:21.674Z,25.97
2022-08-21T19:01:01.481Z,25.92
2022-08-21T19:02:41.220Z,25.88
2022-08-21T19:04:21.013Z,25.82
2022-08-21T19:06:00.756Z,25.78
2022-08-21T19:07:40.548Z,25.75
2022-08-21T19:09:20.311Z,25.68
2022-08-21T19:11:00.078Z,25.65
2022-08-21T19:12:39.810Z,25.59
2022-08-21T19:14:19.620Z,25.56
2022-08-21T19:15:59.408Z,25.51
2022-08-21T19:17:39.134Z,25.46
2022-08-21T19:19:18.935Z,25.42
2022-08-21T19:20:58.650Z,25.38
2022-08-21T19:22:38.428Z,25.34
2022-08-21T19:24:18.213Z,25.3
2022-08-21T19:25:58.005Z,25.27
2022-08-21T19:29:17.548Z,25.19
2022-08-21T19:30:57.252Z,25.14
2022-08-21T19:32:37.022Z,25.1
2022-08-21T19:34:16.801Z,25.06
2022-08-21T19:35:56.599Z,25.04
2022-08-21T19:37:36.345Z,24.98
2022-08-21T19:39:16.146Z,24.94
2022-08-21T19:40:55.884Z,24.91
2022-08-21T19:42:35.673Z,24.89
2022-08-21T19:44:15.432Z,24.83
2022-08-21T19:45:55.208Z,24.81
2022-08-21T19:49:14.720Z,24.72
2022-08-21T19:50:54.506Z,24.69
2022-08-21T19:52:34.237Z,24.64
2022-08-21T19:54:14.024Z,24.62
2022-08-21T19:55:53.804Z,24.57
2022-08-21T19:57:33.547Z,24.54
2022-08-21T19:59:13.357Z,24.52
2022-08-21T20:00:53.118Z,24.49
2022-08-21T20:02:32.857Z,24.43
2022-08-21T20:04:12.644Z,24.4
2022-08-21T20:05:52.381Z,24.36
2022-08-21T20:07:32.171Z,24.34
2022-08-21T20:09:11.914Z,24.28
2022-08-21T20:10:51.720Z,24.27
2022-08-21T20:12:31.508Z,24.21
2022-08-21T20:14:11.235Z,24.18
2022-08-21T20:15:51.005Z,24.17
2022-08-21T20:20:50.339Z,24.06
2022-08-21T20:22:30.055Z,24.02
2022-08-21T20:24:09.859Z,23.99
2022-08-21T20:27:29.404Z,23.91
2022-08-21T20:29:09.149Z,23.89
2022-08-21T20:30:48.915Z,23.86
2022-08-21T20:32:28.688Z,23.83
2022-08-21T20:34:08.474Z,23.8
2022-08-21T20:35:48.192Z,23.76
2022-08-21T20:37:27.957Z,23.72
2022-08-21T20:39:07.730Z,23.69
2022-08-21T20:40:47.524Z,23.66
2022-08-21T20:42:27.390Z,23.63
2022-08-21T20:44:07.038Z,23.6
2022-08-21T20:45:46.824Z,23.55
2022-08-21T20:47:26.594Z,23.52
2022-08-21T20:49:06.350Z,23.48
2022-08-21T20:50:46.152Z,23.46
2022-08-21T20:52:25.879Z,23.43
2022-08-21T20:54:05.638Z,23.39
2022-08-21T20:55:45.446Z,23.38
2022-08-21T20:57:25.179Z,23.32
2022-08-21T20:59:04.994Z,23.31
2022-08-21T21:00:44.746Z,23.27
2022-08-21T21:02:24.517Z,23.24
2022-08-21T21:04:04.249Z,23.21
2022-08-21T21:05:44.056Z,23.19
2022-08-21T21:07:23.824Z,23.15
2022-08-21T21:09:03.545Z,23.12
2022-08-21T21:10:43.350Z,23.1
2022-08-21T21:12:23.123Z,23.08
2022-08-21T21:14:02.889Z,23.03
2022-08-21T21:15:42.660Z,23.01
2022-08-21T21:17:22.393Z,22.98
2022-08-21T21:19:02.193Z,22.97
2022-08-21T21:20:41.961Z,22.93
2022-08-21T21:22:21.736Z,22.89
2022-08-21T21:24:01.456Z,22.88
2022-08-21T21:29:00.782Z,22.79
2022-08-21T21:30:40.566Z,22.77
2022-08-21T21:32:20.326Z,22.73
2022-08-21T21:34:00.084Z,22.72
2022-08-21T21:35:39.826Z,22.67
2022-08-21T21:38:59.404Z,22.64
2022-08-21T21:40:39.153Z,22.6
2022-08-21T21:42:18.900Z,22.57
2022-08-21T21:43:58.675Z,22.56
2022-08-21T21:45:38.471Z,22.53
2022-08-21T21:47:18.210Z,22.5
2022-08-21T21:48:58.013Z,22.49
2022-08-21T21:50:37.755Z,22.43
2022-08-21T21:53:57.308Z,22.38
2022-08-21T21:55:37.060Z,22.37
2022-08-21T21:57:16.845Z,22.35
2022-08-21T21:58:56.589Z,22.31
2022-08-21T22:00:36.384Z,22.3
2022-08-21T22:02:16.138Z,22.28
2022-08-21T22:03:55.896Z,22.25
2022-08-21T22:05:35.667Z,22.21
2022-08-21T22:08:55.207Z,22.17
2022-08-21T22:10:34.939Z,22.15
2022-08-21T22:12:14.758Z,22.11
2022-08-21T22:13:54.496Z,22.1
2022-08-21T22:17:14.062Z,22.05
2022-08-21T22:18:53.792Z,22
2022-08-21T22:20:33.591Z,22
2022-08-21T22:22:13.346Z,21.97
2022-08-21T22:23:53.108Z,21.95
2022-08-21T22:25:32.860Z,21.93
2022-08-21T22:27:12.629Z,21.91
2022-08-21T22:28:52.426Z,21.87
2022-08-21T22:30:32.203Z,21.85
2022-08-21T22:32:11.950Z,21.83
2022-08-21T22:33:51.705Z,21.79
2022-08-21T22:35:31.499Z,21.79
2022-08-21T22:38:51.028Z,21.75
2022-08-21T22:40:30.750Z,21.72
2022-08-21T22:42:10.539Z,21.69
2022-08-21T22:43:50.299Z,21.67
2022-08-21T22:45:30.059Z,21.64